Southgate, MI (48195)

19:27 EDT le 31 août 2016 (GMT -0400)
Southgate | | Change Station

Alt. 587 ft 42.21 °N, 83.19 °W | Updated 15 minutes ago

Scattered Clouds
Nuages épars
75.7 ° F
Paraît 78 ° F
N
10.0
Vent Variable Vent de NNO
Gusts 15.0 mph

Aujourd'hui
Haut(e) -- | Bas -- ° F
--% Risque de précip.
Hier
Haut(e) -- | Bas -- ° F
Precip. -- pouce
Pression 29.97 pouce
Visibilité 10.0 Miles terrestres
Nuages Peu 4500 ft
Nuages épars 22000 ft
indice de chaleur 78 ° F
Point de rosée 60 ° F
Humidité 58%
Précipitations 0.00 pouce
Profondeur de la couche neigeuse Non disponible.
6:57 AM 8:07 PM
Lune descendante, 0% visible
METAR KDTW 312253Z 36011KT 10SM FEW045 SCT220 24/14 A2998 RMK AO2 SLP148 T02440139
Pression 29.97 pouce
Visibilité 10.0 Miles terrestres
Nuages Peu 4500 ft
Nuages épars 22000 ft
indice de chaleur 78 ° F
Point de rosée 60 ° F
Humidité 58%
Précipitations 0.00 pouce
Profondeur de la couche neigeuse Non disponible.
6:57 AM 8:07 PM
Lune descendante, 0% visible
METAR KDTW 312253Z 36011KT 10SM FEW045 SCT220 24/14 A2998 RMK AO2 SLP148 T02440139

10-Day Weather Forecast

Almanac

Astronomie

Aug. 31, 2016 Lever Coucher
Temps réel
Crépuscule civil
Crépuscule nautique
Crépuscule astronomique
Lune
Durée de lumière visible
Longueur du jour
Tomorrow will be .
, % of the Moon is Illuminated

Extrêmes aujourd'hui

State Highs State Lows

Community

WunderPhotos

Upload Photos

1,936,211 Photos téléchargées !

WunderBlog® & News

Nearby

Qualité de l'air

  Qualité de l'air Indice de la qualité de l'air Polluant
Not available.

Épaisseur de neige

Station Depth Altitude

Activité sismique

Ville Distance Mag. Time & Date
Minimum magnitude displayed is 2.5.

Températures des eaux côtières

Lieu Température

Stations

Stations météo à proximité

Emplacement de la station Température Refroidissement éolien Point de rosée Humidité Vent Precip. Alt. Mise à jour Type
                   

Watches & Warnings

There are currently no watches in effect.